sensor_id;sensor_type;location;lat;lon;timestamp;pressure;altitude;pressure_sealevel;temperature;humidity
78667;BME280;67983;59.830;30.198;2023-05-07T00:01:26;102806.66;;;4.79;56.88
78667;BME280;67983;59.830;30.198;2023-05-07T00:03:55;102803.16;;;4.74;56.75
78667;BME280;67983;59.830;30.198;2023-05-07T00:06:22;102808.44;;;4.73;56.68
78667;BME280;67983;59.830;30.198;2023-05-07T00:08:53;102809.34;;;4.70;57.06
78667;BME280;67983;59.830;30.198;2023-05-07T00:11:20;102811.13;;;4.68;57.65
78667;BME280;67983;59.830;30.198;2023-05-07T00:13:48;102812.91;;;4.65;57.34
78667;BME280;67983;59.830;30.198;2023-05-07T00:16:16;102809.41;;;4.64;57.42
78667;BME280;67983;59.830;30.198;2023-05-07T00:18:44;102805.91;;;4.64;57.77
78667;BME280;67983;59.830;30.198;2023-05-07T00:21:12;102811.16;;;4.65;57.81
78667;BME280;67983;59.830;30.198;2023-05-07T00:23:42;102811.16;;;4.64;57.94
78667;BME280;67983;59.830;30.198;2023-05-07T00:26:09;102818.19;;;4.62;58.20
78667;BME280;67983;59.830;30.198;2023-05-07T00:28:36;102807.69;;;4.62;58.14
78667;BME280;67983;59.830;30.198;2023-05-07T00:31:03;102812.94;;;4.62;58.16
78667;BME280;67983;59.830;30.198;2023-05-07T00:33:30;102817.31;;;4.61;58.20
78667;BME280;67983;59.830;30.198;2023-05-07T00:36:23;102815.56;;;4.60;57.73
78667;BME280;67983;59.830;30.198;2023-05-07T00:38:53;102812.94;;;4.60;58.05
78667;BME280;67983;59.830;30.198;2023-05-07T00:41:20;102812.06;;;4.58;57.90
78667;BME280;67983;59.830;30.198;2023-05-07T00:43:49;102816.47;;;4.56;58.22
78667;BME280;67983;59.830;30.198;2023-05-07T00:46:17;102812.94;;;4.57;58.20
78667;BME280;67983;59.830;30.198;2023-05-07T00:48:46;102819.97;;;4.55;58.20
78667;BME280;67983;59.830;30.198;2023-05-07T00:51:14;102814.72;;;4.55;58.27
78667;BME280;67983;59.830;30.198;2023-05-07T00:53:47;102810.34;;;4.56;58.36
78667;BME280;67983;59.830;30.198;2023-05-07T00:56:14;102812.06;;;4.57;58.42
78667;BME280;67983;59.830;30.198;2023-05-07T00:58:44;102814.69;;;4.57;58.52
78667;BME280;67983;59.830;30.198;2023-05-07T01:01:12;102817.31;;;4.58;58.77
78667;BME280;67983;59.830;30.198;2023-05-07T01:03:41;102821.72;;;4.61;58.60
78667;BME280;67983;59.830;30.198;2023-05-07T01:06:09;102817.28;;;4.66;58.83
78667;BME280;67983;59.830;30.198;2023-05-07T01:08:38;102818.13;;;4.68;58.46
78667;BME280;67983;59.830;30.198;2023-05-07T01:11:08;102808.47;;;4.70;58.39
78667;BME280;67983;59.830;30.198;2023-05-07T01:13:38;102817.19;;;4.73;58.85
78667;BME280;67983;59.830;30.198;2023-05-07T01:16:05;102818.94;;;4.79;58.80
78667;BME280;67983;59.830;30.198;2023-05-07T01:18:33;102819.78;;;4.81;58.59
78667;BME280;67983;59.830;30.198;2023-05-07T01:21:01;102821.50;;;4.84;58.64
78667;BME280;67983;59.830;30.198;2023-05-07T01:23:33;102821.47;;;4.87;58.66
78667;BME280;67983;59.830;30.198;2023-05-07T01:26:03;102820.56;;;4.89;58.19
78667;BME280;67983;59.830;30.198;2023-05-07T01:28:34;102820.53;;;4.95;58.51
78667;BME280;67983;59.830;30.198;2023-05-07T01:31:04;102823.13;;;4.98;58.58
78667;BME280;67983;59.830;30.198;2023-05-07T01:33:35;102827.50;;;5.01;58.17
78667;BME280;67983;59.830;30.198;2023-05-07T01:36:04;102823.97;;;5.00;58.17
78667;BME280;67983;59.830;30.198;2023-05-07T01:38:33;102830.09;;;5.04;58.58
78667;BME280;67983;59.830;30.198;2023-05-07T01:41:03;102834.47;;;5.05;58.19
78667;BME280;67983;59.830;30.198;2023-05-07T01:43:31;102831.84;;;5.06;58.70
78667;BME280;67983;59.830;30.198;2023-05-07T01:46:02;102830.94;;;5.09;58.58
78667;BME280;67983;59.830;30.198;2023-05-07T01:48:29;102834.38;;;5.14;58.36
78667;BME280;67983;59.830;30.198;2023-05-07T01:50:56;102843.13;;;5.16;57.93
78667;BME280;67983;59.830;30.198;2023-05-07T01:53:23;102839.59;;;5.19;58.15
78667;BME280;67983;59.830;30.198;2023-05-07T01:55:53;102830.81;;;5.20;57.93
78667;BME280;67983;59.830;30.198;2023-05-07T01:58:22;102837.81;;;5.24;57.97
78667;BME280;67983;59.830;30.198;2023-05-07T02:00:49;102836.91;;;5.25;57.83
78667;BME280;67983;59.830;30.198;2023-05-07T02:03:16;102835.16;;;5.25;58.14
78667;BME280;67983;59.830;30.198;2023-05-07T02:05:56;102836.00;;;5.29;58.00
78667;BME280;67983;59.830;30.198;2023-05-07T02:08:30;102834.25;;;5.28;58.02
78667;BME280;67983;59.830;30.198;2023-05-07T02:11:01;102836.00;;;5.27;57.78
78667;BME280;67983;59.830;30.198;2023-05-07T02:13:29;102841.25;;;5.29;58.28
78667;BME280;67983;59.830;30.198;2023-05-07T02:15:57;102839.44;;;5.34;57.75
78667;BME280;67983;59.830;30.198;2023-05-07T02:18:25;102841.19;;;5.36;57.95
78667;BME280;67983;59.830;30.198;2023-05-07T02:20:53;102843.78;;;5.39;57.86
78667;BME280;67983;59.830;30.198;2023-05-07T02:23:20;102843.75;;;5.43;57.97
78667;BME280;67983;59.830;30.198;2023-05-07T02:25:47;102842.84;;;5.45;57.57
78667;BME280;67983;59.830;30.198;2023-05-07T02:28:16;102847.19;;;5.49;57.72
78667;BME280;67983;59.830;30.198;2023-05-07T02:31:05;102848.91;;;5.50;57.64
78667;BME280;67983;59.830;30.198;2023-05-07T02:33:34;102845.41;;;5.53;57.59
78667;BME280;67983;59.830;30.198;2023-05-07T02:36:06;102852.34;;;5.58;57.13
78667;BME280;67983;59.830;30.198;2023-05-07T02:38:35;102849.75;;;5.57;57.12
78667;BME280;67983;59.830;30.198;2023-05-07T02:41:03;102847.97;;;5.59;57.27
78667;BME280;67983;59.830;30.198;2023-05-07T02:43:38;102850.56;;;5.60;57.42
78667;BME280;67983;59.830;30.198;2023-05-07T02:46:09;102845.28;;;5.63;57.06
78667;BME280;67983;59.830;30.198;2023-05-07T02:48:40;102848.78;;;5.62;57.46
78667;BME280;67983;59.830;30.198;2023-05-07T02:51:07;102844.34;;;5.66;57.04
78667;BME280;67983;59.830;30.198;2023-05-07T02:53:38;102841.72;;;5.69;57.46
78667;BME280;67983;59.830;30.198;2023-05-07T02:56:07;102851.34;;;5.70;57.37
78667;BME280;67983;59.830;30.198;2023-05-07T02:58:34;102851.34;;;5.72;57.18
78667;BME280;67983;59.830;30.198;2023-05-07T03:01:04;102851.28;;;5.76;57.24
78667;BME280;67983;59.830;30.198;2023-05-07T03:03:36;102851.22;;;5.81;57.01
78667;BME280;67983;59.830;30.198;2023-05-07T03:06:03;102849.50;;;5.77;57.48
78667;BME280;67983;59.830;30.198;2023-05-07T03:08:30;102851.34;;;5.70;57.16
78667;BME280;67983;59.830;30.198;2023-05-07T03:10:58;102854.84;;;5.72;57.18
78667;BME280;67983;59.830;30.198;2023-05-07T03:13:25;102847.75;;;5.77;57.19
78667;BME280;67983;59.830;30.198;2023-05-07T03:15:52;102846.81;;;5.83;57.45
78667;BME280;67983;59.830;30.198;2023-05-07T03:18:21;102846.72;;;5.89;56.85
78667;BME280;67983;59.830;30.198;2023-05-07T03:20:48;102846.66;;;5.96;57.29
78667;BME280;67983;59.830;30.198;2023-05-07T03:23:18;102850.06;;;6.05;56.91
78667;BME280;67983;59.830;30.198;2023-05-07T03:25:46;102845.63;;;6.08;56.56
78667;BME280;67983;59.830;30.198;2023-05-07T03:28:14;102848.22;;;6.11;56.51
78667;BME280;67983;59.830;30.198;2023-05-07T03:31:05;102847.47;;;6.03;56.67
78667;BME280;67983;59.830;30.198;2023-05-07T03:33:50;102861.44;;;6.08;56.55
78667;BME280;67983;59.830;30.198;2023-05-07T03:36:21;102864.03;;;6.13;56.81
78667;BME280;67983;59.830;30.198;2023-05-07T03:38:49;102867.44;;;6.19;56.47
78667;BME280;67983;59.830;30.198;2023-05-07T03:41:23;102868.28;;;6.23;56.00
78667;BME280;67983;59.830;30.198;2023-05-07T03:43:51;102872.59;;;6.27;56.10
78667;BME280;67983;59.830;30.198;2023-05-07T03:46:18;102876.09;;;6.31;56.56
78667;BME280;67983;59.830;30.198;2023-05-07T03:48:46;102876.09;;;6.31;56.17
78667;BME280;67983;59.830;30.198;2023-05-07T03:51:15;102876.84;;;6.39;55.92
78667;BME280;67983;59.830;30.198;2023-05-07T03:53:49;102883.75;;;6.49;55.84
78667;BME280;67983;59.830;30.198;2023-05-07T03:56:19;102880.03;;;6.62;55.71
78667;BME280;67983;59.830;30.198;2023-05-07T03:58:47;102877.34;;;6.65;55.52
78667;BME280;67983;59.830;30.198;2023-05-07T04:01:16;102885.97;;;6.76;55.42
78667;BME280;67983;59.830;30.198;2023-05-07T04:03:44;102885.81;;;6.85;55.40
78667;BME280;67983;59.830;30.198;2023-05-07T04:06:17;102888.25;;;6.98;55.02
78667;BME280;67983;59.830;30.198;2023-05-07T04:08:46;102891.56;;;7.12;54.50
78667;BME280;67983;59.830;30.198;2023-05-07T04:11:14;102894.94;;;7.20;54.30
78667;BME280;67983;59.830;30.198;2023-05-07T04:13:41;102890.41;;;7.27;54.42
78667;BME280;67983;59.830;30.198;2023-05-07T04:16:09;102895.53;;;7.34;54.39
78667;BME280;67983;59.830;30.198;2023-05-07T04:18:37;102897.97;;;7.46;53.69
78667;BME280;67983;59.830;30.198;2023-05-07T04:21:05;102891.59;;;7.58;53.90
78667;BME280;67983;59.830;30.198;2023-05-07T04:23:37;102903.72;;;7.70;53.75
78667;BME280;67983;59.830;30.198;2023-05-07T04:26:10;102896.44;;;7.83;53.07
78667;BME280;67983;59.830;30.198;2023-05-07T04:28:42;102897.03;;;7.95;52.74
78667;BME280;67983;59.830;30.198;2023-05-07T04:31:09;102904.66;;;8.10;52.71
78667;BME280;67983;59.830;30.198;2023-05-07T04:33:37;102903.44;;;8.25;52.52
78667;BME280;67983;59.830;30.198;2023-05-07T04:36:07;102909.41;;;8.38;51.99
78667;BME280;67983;59.830;30.198;2023-05-07T04:38:46;102899.44;;;8.49;52.07
78667;BME280;67983;59.830;30.198;2023-05-07T04:41:13;102911.53;;;8.61;51.73
78667;BME280;67983;59.830;30.198;2023-05-07T04:43:42;102909.50;;;8.72;51.41
78667;BME280;67983;59.830;30.198;2023-05-07T04:46:11;102905.81;;;8.79;50.63
78667;BME280;67983;59.830;30.198;2023-05-07T04:48:39;102910.13;;;8.83;50.58
78667;BME280;67983;59.830;30.198;2023-05-07T04:51:07;102905.38;;;8.97;50.47
78667;BME280;67983;59.830;30.198;2023-05-07T04:53:33;102904.16;;;9.11;50.04
78667;BME280;67983;59.830;30.198;2023-05-07T04:56:02;102904.66;;;9.26;49.50
78667;BME280;67983;59.830;30.198;2023-05-07T04:58:38;102897.31;;;9.38;49.15
78667;BME280;67983;59.830;30.198;2023-05-07T05:01:06;102911.09;;;9.50;48.44
78667;BME280;67983;59.830;30.198;2023-05-07T05:03:34;102909.00;;;9.62;48.45
78667;BME280;67983;59.830;30.198;2023-05-07T05:06:04;102912.31;;;9.71;47.58
78667;BME280;67983;59.830;30.198;2023-05-07T05:08:33;102912.13;;;9.77;47.63
78667;BME280;67983;59.830;30.198;2023-05-07T05:11:04;102915.44;;;9.85;47.12
78667;BME280;67983;59.830;30.198;2023-05-07T05:13:33;102918.19;;;9.82;46.86
78667;BME280;67983;59.830;30.198;2023-05-07T05:16:06;102917.97;;;9.90;46.62
78667;BME280;67983;59.830;30.198;2023-05-07T05:18:38;102909.81;;;9.98;46.38
78667;BME280;67983;59.830;30.198;2023-05-07T05:21:07;102914.09;;;10.02;46.04
78667;BME280;67983;59.830;30.198;2023-05-07T05:23:34;102914.88;;;10.05;46.34
78667;BME280;67983;59.830;30.198;2023-05-07T05:26:01;102914.78;;;10.08;46.02
78667;BME280;67983;59.830;30.198;2023-05-07T05:28:34;102922.81;;;10.05;45.21
78667;BME280;67983;59.830;30.198;2023-05-07T05:31:04;102916.56;;;10.08;45.07
78667;BME280;67983;59.830;30.198;2023-05-07T05:33:34;102918.34;;;10.07;44.25
78667;BME280;67983;59.830;30.198;2023-05-07T05:36:04;102914.22;;;9.97;43.78
78667;BME280;67983;59.830;30.198;2023-05-07T05:38:57;102920.75;;;9.85;43.43
78667;BME280;67983;59.830;30.198;2023-05-07T05:41:26;102917.38;;;9.79;42.99
78667;BME280;67983;59.830;30.198;2023-05-07T05:43:54;102924.63;;;9.72;42.61
78667;BME280;67983;59.830;30.198;2023-05-07T05:46:21;102931.91;;;9.66;42.93
78667;BME280;67983;59.830;30.198;2023-05-07T05:48:50;102924.09;;;9.59;42.93
78667;BME280;67983;59.830;30.198;2023-05-07T05:51:18;102931.34;;;9.53;43.13
78667;BME280;67983;59.830;30.198;2023-05-07T05:53:48;102933.97;;;9.54;43.50
78667;BME280;67983;59.830;30.198;2023-05-07T05:56:19;102924.91;;;9.62;43.51
78667;BME280;67983;59.830;30.198;2023-05-07T05:58:46;102918.56;;;9.69;43.40
78667;BME280;67983;59.830;30.198;2023-05-07T06:01:15;102929.81;;;9.77;43.43
78667;BME280;67983;59.830;30.198;2023-05-07T06:03:43;102933.03;;;9.88;43.20
78667;BME280;67983;59.830;30.198;2023-05-07T06:06:14;102928.50;;;9.92;42.52
78667;BME280;67983;59.830;30.198;2023-05-07T06:08:42;102936.31;;;9.98;42.28
78667;BME280;67983;59.830;30.198;2023-05-07T06:11:13;102939.91;;;9.95;41.16
78667;BME280;67983;59.830;30.198;2023-05-07T06:13:44;102939.34;;;9.84;40.73
78667;BME280;67983;59.830;30.198;2023-05-07T06:16:11;102945.75;;;9.75;41.39
78667;BME280;67983;59.830;30.198;2023-05-07T06:18:39;102944.28;;;9.65;41.40
78667;BME280;67983;59.830;30.198;2023-05-07T06:21:06;102951.97;;;9.74;41.34
78667;BME280;67983;59.830;30.198;2023-05-07T06:23:34;102950.03;;;9.81;39.49
78667;BME280;67983;59.830;30.198;2023-05-07T06:26:02;102946.63;;;9.76;39.95
78667;BME280;67983;59.830;30.198;2023-05-07T06:28:34;102949.38;;;9.73;40.52
78667;BME280;67983;59.830;30.198;2023-05-07T06:31:13;102954.66;;;9.73;40.47
78667;BME280;67983;59.830;30.198;2023-05-07T06:33:49;102953.56;;;9.80;40.82
78667;BME280;67983;59.830;30.198;2023-05-07T06:36:18;102960.66;;;9.79;41.37
78667;BME280;67983;59.830;30.198;2023-05-07T06:38:46;102962.50;;;9.77;41.56
78667;BME280;67983;59.830;30.198;2023-05-07T06:41:14;102950.09;;;9.78;41.79
78667;BME280;67983;59.830;30.198;2023-05-07T06:43:42;102952.47;;;9.88;41.94
78667;BME280;67983;59.830;30.198;2023-05-07T06:46:25;102947.69;;;10.01;41.22
78667;BME280;67983;59.830;30.198;2023-05-07T06:48:58;102951.00;;;10.09;39.75
78667;BME280;67983;59.830;30.198;2023-05-07T06:51:27;102950.78;;;10.17;39.75
78667;BME280;67983;59.830;30.198;2023-05-07T06:53:55;102952.31;;;10.27;39.73
78667;BME280;67983;59.830;30.198;2023-05-07T06:56:22;102948.66;;;10.31;39.24
78667;BME280;67983;59.830;30.198;2023-05-07T06:58:50;102950.16;;;10.40;39.01
78667;BME280;67983;59.830;30.198;2023-05-07T07:01:19;102946.41;;;10.47;39.06
78667;BME280;67983;59.830;30.198;2023-05-07T07:03:48;102950.38;;;10.62;38.11
78667;BME280;67983;59.830;30.198;2023-05-07T07:06:18;102948.75;;;10.56;36.17
78667;BME280;67983;59.830;30.198;2023-05-07T07:08:47;102949.69;;;10.55;36.83
78667;BME280;67983;59.830;30.198;2023-05-07T07:11:16;102943.44;;;10.56;37.19
78667;BME280;67983;59.830;30.198;2023-05-07T07:13:43;102947.69;;;10.63;37.38
78667;BME280;67983;59.830;30.198;2023-05-07T07:16:11;102944.78;;;10.71;37.23
78667;BME280;67983;59.830;30.198;2023-05-07T07:18:39;102942.50;;;10.87;37.54
78667;BME280;67983;59.830;30.198;2023-05-07T07:21:08;102948.25;;;11.01;37.07
78667;BME280;67983;59.830;30.198;2023-05-07T07:23:36;102947.31;;;11.03;36.89
78667;BME280;67983;59.830;30.198;2023-05-07T07:26:05;102943.53;;;11.11;36.12
78667;BME280;67983;59.830;30.198;2023-05-07T07:28:32;102942.44;;;11.16;35.75
78667;BME280;67983;59.830;30.198;2023-05-07T07:30:59;102944.97;;;11.21;35.04
78667;BME280;67983;59.830;30.198;2023-05-07T07:33:27;102945.03;;;11.18;34.94
78667;BME280;67983;59.830;30.198;2023-05-07T07:35:56;102943.56;;;11.09;34.89
78667;BME280;67983;59.830;30.198;2023-05-07T07:38:22;102940.81;;;11.12;34.97
78667;BME280;67983;59.830;30.198;2023-05-07T07:40:51;102948.53;;;11.20;34.64
78667;BME280;67983;59.830;30.198;2023-05-07T07:43:18;102959.06;;;11.23;33.12
78667;BME280;67983;59.830;30.198;2023-05-07T07:46:10;102943.94;;;11.25;33.06
78667;BME280;67983;59.830;30.198;2023-05-07T07:48:39;102950.94;;;11.27;32.94
78667;BME280;67983;59.830;30.198;2023-05-07T07:51:06;102945.63;;;11.27;31.80
78667;BME280;67983;59.830;30.198;2023-05-07T07:53:34;102953.75;;;11.23;31.51
78667;BME280;67983;59.830;30.198;2023-05-07T07:56:03;102944.16;;;11.17;31.54
78667;BME280;67983;59.830;30.198;2023-05-07T07:58:33;102946.81;;;11.17;31.31
78667;BME280;67983;59.830;30.198;2023-05-07T08:01:26;102945.03;;;11.19;31.48
78667;BME280;67983;59.830;30.198;2023-05-07T08:03:57;102942.25;;;11.22;31.32
78667;BME280;67983;59.830;30.198;2023-05-07T08:06:25;102940.53;;;11.21;30.68
78667;BME280;67983;59.830;30.198;2023-05-07T08:08:53;102941.44;;;11.20;31.05
78667;BME280;67983;59.830;30.198;2023-05-07T08:11:22;102944.69;;;11.28;31.67
78667;BME280;67983;59.830;30.198;2023-05-07T08:13:54;102939.94;;;11.38;31.11
78667;BME280;67983;59.830;30.198;2023-05-07T08:16:24;102938.97;;;11.41;30.99
78667;BME280;67983;59.830;30.198;2023-05-07T08:18:52;102944.91;;;11.49;30.76
78667;BME280;67983;59.830;30.198;2023-05-07T08:21:20;102931.84;;;11.67;30.89
78667;BME280;67983;59.830;30.198;2023-05-07T08:23:47;102945.25;;;11.89;30.68
78667;BME280;67983;59.830;30.198;2023-05-07T08:26:16;102932.22;;;12.07;29.78
78667;BME280;67983;59.830;30.198;2023-05-07T08:28:44;102935.41;;;12.40;29.90
78667;BME280;67983;59.830;30.198;2023-05-07T08:31:11;102934.16;;;12.72;29.69
78667;BME280;67983;59.830;30.198;2023-05-07T08:33:42;102919.03;;;12.94;28.88
78667;BME280;67983;59.830;30.198;2023-05-07T08:36:11;102931.41;;;13.19;28.11
78667;BME280;67983;59.830;30.198;2023-05-07T08:38:39;102929.28;;;13.27;26.70
78667;BME280;67983;59.830;30.198;2023-05-07T08:41:10;102923.16;;;13.45;25.57
78667;BME280;67983;59.830;30.198;2023-05-07T08:43:41;102942.63;;;13.47;23.68
78667;BME280;67983;59.830;30.198;2023-05-07T08:46:12;102925.47;;;13.32;23.38
78667;BME280;67983;59.830;30.198;2023-05-07T08:48:44;102941.47;;;13.32;23.55
78667;BME280;67983;59.830;30.198;2023-05-07T08:51:17;102927.34;;;13.30;23.46
78667;BME280;67983;59.830;30.198;2023-05-07T08:53:48;102916.72;;;13.51;22.82
78667;BME280;67983;59.830;30.198;2023-05-07T08:56:20;102921.97;;;13.72;22.52
78667;BME280;67983;59.830;30.198;2023-05-07T08:58:49;102910.34;;;13.94;20.96
78667;BME280;67983;59.830;30.198;2023-05-07T09:01:27;102926.88;;;14.21;20.83
78667;BME280;67983;59.830;30.198;2023-05-07T09:03:57;102927.03;;;14.36;19.78
78667;BME280;67983;59.830;30.198;2023-05-07T09:06:26;102930.94;;;14.29;19.97
78667;BME280;67983;59.830;30.198;2023-05-07T09:08:54;102912.16;;;14.12;18.96
78667;BME280;67983;59.830;30.198;2023-05-07T09:11:28;102929.03;;;13.94;19.82
78667;BME280;67983;59.830;30.198;2023-05-07T09:13:59;102928.88;;;13.76;20.26
78667;BME280;67983;59.830;30.198;2023-05-07T09:16:35;102928.38;;;13.68;20.74
78667;BME280;67983;59.830;30.198;2023-05-07T09:19:04;102920.56;;;13.64;20.62
78667;BME280;67983;59.830;30.198;2023-05-07T09:21:31;102926.63;;;13.67;20.99
78667;BME280;67983;59.830;30.198;2023-05-07T09:24:02;102919.22;;;13.74;20.81
78667;BME280;67983;59.830;30.198;2023-05-07T09:26:35;102914.50;;;13.81;20.92
78667;BME280;67983;59.830;30.198;2023-05-07T09:29:06;102932.50;;;13.96;20.25
78667;BME280;67983;59.830;30.198;2023-05-07T09:31:38;102925.16;;;14.20;19.84
78667;BME280;67983;59.830;30.198;2023-05-07T09:34:10;102931.25;;;14.42;19.25
78667;BME280;67983;59.830;30.198;2023-05-07T09:36:40;102924.53;;;14.52;18.29
78667;BME280;67983;59.830;30.198;2023-05-07T09:39:07;102925.63;;;14.67;18.29
78667;BME280;67983;59.830;30.198;2023-05-07T09:41:43;102921.41;;;14.80;18.43
78667;BME280;67983;59.830;30.198;2023-05-07T09:44:17;102928.69;;;14.95;17.89
78667;BME280;67983;59.830;30.198;2023-05-07T09:46:54;102927.66;;;14.98;17.73
78667;BME280;67983;59.830;30.198;2023-05-07T09:49:33;102932.00;;;15.01;17.58
78667;BME280;67983;59.830;30.198;2023-05-07T09:52:05;102920.06;;;15.08;17.86
78667;BME280;67983;59.830;30.198;2023-05-07T09:54:43;102926.13;;;15.29;18.10
78667;BME280;67983;59.830;30.198;2023-05-07T09:57:11;102926.53;;;15.38;16.88
78667;BME280;67983;59.830;30.198;2023-05-07T09:59:42;102920.25;;;15.39;17.59
78667;BME280;67983;59.830;30.198;2023-05-07T10:02:17;102933.78;;;15.36;17.78
78667;BME280;67983;59.830;30.198;2023-05-07T10:04:52;102926.88;;;15.32;18.37
78667;BME280;67983;59.830;30.198;2023-05-07T10:07:25;102930.53;;;15.30;18.51
78667;BME280;67983;59.830;30.198;2023-05-07T10:09:57;102939.22;;;15.35;18.93
78667;BME280;67983;59.830;30.198;2023-05-07T10:12:35;102934.50;;;15.40;18.43
78667;BME280;67983;59.830;30.198;2023-05-07T10:15:14;102927.28;;;15.59;18.53
78667;BME280;67983;59.830;30.198;2023-05-07T10:17:48;102929.66;;;15.98;18.68
78667;BME280;67983;59.830;30.198;2023-05-07T10:20:16;102930.56;;;16.14;18.83
78667;BME280;67983;59.830;30.198;2023-05-07T10:22:47;102934.47;;;16.09;19.24
78667;BME280;67983;59.830;30.198;2023-05-07T10:25:23;102914.03;;;16.06;18.60
78667;BME280;67983;59.830;30.198;2023-05-07T10:27:55;102924.50;;;16.60;18.68
78667;BME280;67983;59.830;30.198;2023-05-07T10:30:33;102918.50;;;17.48;18.37
78667;BME280;67983;59.830;30.198;2023-05-07T10:33:10;102928.53;;;17.88;17.16
78667;BME280;67983;59.830;30.198;2023-05-07T10:36:07;102928.75;;;18.00;17.24
78667;BME280;67983;59.830;30.198;2023-05-07T10:38:35;102936.78;;;17.85;17.34
78667;BME280;67983;59.830;30.198;2023-05-07T10:41:02;102924.03;;;17.45;17.35
78667;BME280;67983;59.830;30.198;2023-05-07T10:43:40;102923.00;;;17.17;17.80
78667;BME280;67983;59.830;30.198;2023-05-07T10:46:15;102916.53;;;17.06;18.45
78667;BME280;67983;59.830;30.198;2023-05-07T10:49:10;102921.63;;;16.94;18.72
78667;BME280;67983;59.830;30.198;2023-05-07T10:52:11;102918.28;;;16.75;18.37
78667;BME280;67983;59.830;30.198;2023-05-07T10:54:39;102935.91;;;16.63;17.61
78667;BME280;67983;59.830;30.198;2023-05-07T10:57:37;102930.63;;;16.46;18.14
78667;BME280;67983;59.830;30.198;2023-05-07T11:00:42;102925.53;;;17.05;17.58
78667;BME280;67983;59.830;30.198;2023-05-07T11:03:18;102910.91;;;18.13;17.06
78667;BME280;67983;59.830;30.198;2023-05-07T11:06:11;102916.19;;;19.24;15.85
78667;BME280;67983;59.830;30.198;2023-05-07T11:08:55;102911.63;;;20.53;15.41
78667;BME280;67983;59.830;30.198;2023-05-07T11:11:51;102913.97;;;21.75;14.40
78667;BME280;67983;59.830;30.198;2023-05-07T11:14:49;102914.59;;;21.79;13.30
78667;BME280;67983;59.830;30.198;2023-05-07T11:17:30;102922.13;;;21.40;13.64
78667;BME280;67983;59.830;30.198;2023-05-07T11:20:04;102910.44;;;21.97;14.04
78667;BME280;67983;59.830;30.198;2023-05-07T11:23:01;102916.13;;;22.93;13.43
78667;BME280;67983;59.830;30.198;2023-05-07T11:25:46;102914.59;;;22.69;13.45
78667;BME280;67983;59.830;30.198;2023-05-07T11:28:25;102911.53;;;21.84;13.65
78667;BME280;67983;59.830;30.198;2023-05-07T11:31:00;102914.34;;;21.12;14.37
78667;BME280;67983;59.830;30.198;2023-05-07T11:33:30;102931.56;;;20.87;14.67
78667;BME280;67983;59.830;30.198;2023-05-07T11:36:04;102923.22;;;21.38;14.17
78667;BME280;67983;59.830;30.198;2023-05-07T11:38:38;102916.53;;;21.66;14.52
78667;BME280;67983;59.830;30.198;2023-05-07T11:41:08;102911.75;;;22.59;13.67
78667;BME280;67983;59.830;30.198;2023-05-07T11:43:35;102923.00;;;23.30;12.68
78667;BME280;67983;59.830;30.198;2023-05-07T11:46:09;102912.16;;;23.71;12.93
78667;BME280;67983;59.830;30.198;2023-05-07T11:48:37;102924.84;;;24.22;12.26
78667;BME280;67983;59.830;30.198;2023-05-07T11:51:06;102915.28;;;24.58;11.86
78667;BME280;67983;59.830;30.198;2023-05-07T11:53:40;102917.94;;;25.27;11.63
78667;BME280;67983;59.830;30.198;2023-05-07T11:56:34;102925.72;;;25.88;10.97
78667;BME280;67983;59.830;30.198;2023-05-07T11:59:26;102926.03;;;26.23;10.17
78667;BME280;67983;59.830;30.198;2023-05-07T12:01:56;102919.66;;;26.41;10.56
78667;BME280;67983;59.830;30.198;2023-05-07T12:04:24;102923.66;;;26.65;10.20
78667;BME280;67983;59.830;30.198;2023-05-07T12:06:57;102907.72;;;26.70;9.54
78667;BME280;67983;59.830;30.198;2023-05-07T12:09:32;102912.63;;;26.66;10.25
78667;BME280;67983;59.830;30.198;2023-05-07T12:12:02;102922.25;;;26.78;10.13
78667;BME280;67983;59.830;30.198;2023-05-07T12:14:31;102918.81;;;27.04;9.21
78667;BME280;67983;59.830;30.198;2023-05-07T12:17:03;102920.28;;;26.80;9.50
78667;BME280;67983;59.830;30.198;2023-05-07T12:19:35;102909.72;;;26.50;10.25
78667;BME280;67983;59.830;30.198;2023-05-07T12:22:04;102915.25;;;26.76;10.14
78667;BME280;67983;59.830;30.198;2023-05-07T12:24:43;102908.72;;;26.69;10.59
78667;BME280;67983;59.830;30.198;2023-05-07T12:27:12;102902.53;;;26.49;10.53
78667;BME280;67983;59.830;30.198;2023-05-07T12:29:39;102912.19;;;26.06;10.44
78667;BME280;67983;59.830;30.198;2023-05-07T12:32:12;102911.63;;;25.37;10.97
78667;BME280;67983;59.830;30.198;2023-05-07T12:34:40;102902.94;;;25.04;10.95
78667;BME280;67983;59.830;30.198;2023-05-07T12:37:07;102903.38;;;24.50;11.27
78667;BME280;67983;59.830;30.198;2023-05-07T12:39:35;102915.34;;;23.35;12.05
78667;BME280;67983;59.830;30.198;2023-05-07T12:42:04;102906.16;;;22.17;13.05
78667;BME280;67983;59.830;30.198;2023-05-07T12:44:32;102907.88;;;21.38;13.26
78667;BME280;67983;59.830;30.198;2023-05-07T12:47:05;102899.56;;;20.94;13.87
78667;BME280;67983;59.830;30.198;2023-05-07T12:49:34;102911.16;;;20.59;14.34
78667;BME280;67983;59.830;30.198;2023-05-07T12:52:03;102906.78;;;20.20;14.37
78667;BME280;67983;59.830;30.198;2023-05-07T12:54:30;102898.75;;;19.69;14.68
78667;BME280;67983;59.830;30.198;2023-05-07T12:57:01;102896.03;;;19.04;15.07
78667;BME280;67983;59.830;30.198;2023-05-07T12:59:35;102899.13;;;18.57;16.07
78667;BME280;67983;59.830;30.198;2023-05-07T13:02:33;102906.38;;;18.28;16.64
78667;BME280;67983;59.830;30.198;2023-05-07T13:05:01;102907.34;;;18.27;16.86
78667;BME280;67983;59.830;30.198;2023-05-07T13:07:29;102903.22;;;18.21;17.52